createdAt,value
2022-11-02T00:02:19.514Z,30.30
2022-11-02T00:04:46.922Z,28.90
2022-11-02T00:07:14.244Z,22.92
2022-11-02T00:09:41.603Z,26.30
2022-11-02T00:12:08.977Z,27.25
2022-11-02T00:14:36.331Z,29.50
2022-11-02T00:17:03.831Z,30.63
2022-11-02T00:19:31.313Z,26.60
2022-11-02T00:21:59.978Z,26.67
2022-11-02T00:24:27.353Z,29.45
2022-11-02T00:26:55.351Z,26.25
2022-11-02T00:29:24.436Z,31.55
2022-11-02T00:31:51.863Z,25.42
2022-11-02T00:34:19.338Z,30.25
2022-11-02T00:36:49.585Z,31.58
2022-11-02T00:39:20.466Z,24.63
2022-11-02T00:41:47.858Z,25.02
2022-11-02T00:44:15.203Z,33.28
2022-11-02T00:46:42.587Z,28.40
2022-11-02T00:49:10.005Z,29.77
2022-11-02T00:51:37.377Z,26.25
2022-11-02T00:54:04.832Z,27.23
2022-11-02T00:56:32.636Z,27.88
2022-11-02T00:58:59.969Z,31.63
2022-11-02T01:01:27.443Z,32.35
2022-11-02T01:03:57.189Z,29.00
2022-11-02T01:06:24.597Z,29.10
2022-11-02T01:08:52.013Z,28.92
2022-11-02T01:11:22.192Z,30.75
2022-11-02T01:13:52.976Z,31.23
2022-11-02T01:16:20.868Z,31.45
2022-11-02T01:18:54.504Z,28.08
2022-11-02T01:21:22.992Z,32.65
2022-11-02T01:23:50.494Z,28.23
2022-11-02T01:26:18.658Z,30.60
2022-11-02T01:28:46.054Z,30.00
2022-11-02T01:31:13.657Z,29.20
2022-11-02T01:33:45.839Z,28.58
2022-11-02T01:36:15.290Z,31.10
2022-11-02T01:38:42.942Z,35.70
2022-11-02T01:41:12.656Z,34.95
2022-11-02T01:43:45.371Z,31.45
2022-11-02T01:46:20.999Z,31.85
2022-11-02T01:49:01.465Z,31.63
2022-11-02T01:51:37.788Z,35.92
2022-11-02T01:54:27.284Z,31.45
2022-11-02T01:57:01.799Z,35.42
2022-11-02T01:59:34.601Z,36.58
2022-11-02T02:02:05.811Z,32.38
2022-11-02T02:04:33.637Z,34.65
2022-11-02T02:07:01.912Z,33.33
2022-11-02T02:09:29.967Z,36.80
2022-11-02T02:11:57.326Z,43.70
2022-11-02T02:14:24.982Z,42.22
2022-11-02T02:17:18.470Z,37.70
2022-11-02T02:20:06.373Z,40.08
2022-11-02T02:22:57.930Z,38.78
2022-11-02T02:25:40.074Z,31.33
2022-11-02T02:28:29.549Z,39.17
2022-11-02T02:31:05.609Z,36.25
2022-11-02T02:33:43.681Z,36.05
2022-11-02T02:36:21.688Z,40.70
2022-11-02T02:39:02.245Z,41.60
2022-11-02T02:41:41.151Z,46.63
2022-11-02T02:44:16.536Z,41.58
2022-11-02T02:46:55.883Z,42.58
2022-11-02T02:50:04.099Z,46.67
2022-11-02T02:52:34.782Z,40.75
2022-11-02T02:55:05.035Z,34.63
2022-11-02T02:57:34.812Z,42.63
2022-11-02T03:00:02.222Z,41.78
2022-11-02T03:02:40.326Z,44.53
2022-11-02T03:05:28.959Z,41.90
2022-11-02T03:08:01.085Z,40.75
2022-11-02T03:10:53.657Z,40.45
2022-11-02T03:13:33.559Z,34.67
2022-11-02T03:16:22.928Z,36.55
2022-11-02T03:19:22.843Z,38.25
2022-11-02T03:22:03.095Z,34.97
2022-11-02T03:25:04.489Z,37.78
2022-11-02T03:30:19.003Z,39.13
2022-11-02T03:33:04.627Z,38.55
2022-11-02T03:35:32.038Z,39.30
2022-11-02T03:38:05.249Z,39.70
2022-11-02T03:40:38.461Z,37.13
2022-11-02T03:43:07.037Z,37.60
2022-11-02T03:45:41.914Z,37.35
2022-11-02T03:48:12.564Z,42.55
2022-11-02T03:50:45.924Z,41.35
2022-11-02T03:53:20.788Z,43.33
2022-11-02T03:56:04.406Z,43.92
2022-11-02T03:58:31.834Z,41.47
2022-11-02T04:01:03.964Z,45.85
2022-11-02T04:03:33.160Z,41.85
2022-11-02T04:06:00.609Z,36.88
2022-11-02T04:08:37.226Z,45.63
2022-11-02T04:11:25.052Z,39.65
2022-11-02T04:14:11.162Z,40.20
2022-11-02T04:16:38.669Z,47.78
2022-11-02T04:19:24.847Z,41.90
2022-11-02T04:22:10.787Z,38.22
2022-11-02T04:24:57.447Z,39.30
2022-11-02T04:27:24.930Z,41.30
2022-11-02T04:29:52.266Z,44.63
2022-11-02T04:32:39.754Z,47.75
2022-11-02T04:35:08.496Z,39.67
2022-11-02T04:38:01.714Z,44.67
2022-11-02T04:40:29.413Z,41.65
2022-11-02T04:42:56.945Z,39.30
2022-11-02T04:45:24.341Z,41.90
2022-11-02T04:47:51.703Z,45.33
2022-11-02T04:50:19.365Z,48.25
2022-11-02T04:52:46.767Z,42.75
2022-11-02T04:55:14.230Z,40.78
2022-11-02T04:57:45.573Z,39.03
2022-11-02T05:00:13.598Z,44.33
2022-11-02T05:02:41.072Z,38.47
2022-11-02T05:05:08.784Z,40.88
2022-11-02T05:07:36.143Z,35.58
2022-11-02T05:10:03.950Z,38.97
2022-11-02T05:12:31.327Z,39.15
2022-11-02T05:14:58.672Z,35.95
2022-11-02T05:17:26.156Z,30.75
2022-11-02T05:19:53.626Z,35.08
2022-11-02T05:22:21.602Z,36.90
2022-11-02T05:24:49.016Z,36.47
2022-11-02T05:27:16.400Z,30.95
2022-11-02T05:29:43.806Z,35.15
2022-11-02T05:32:11.227Z,34.33
2022-11-02T05:34:38.648Z,36.65
2022-11-02T05:37:06.202Z,35.35
2022-11-02T05:39:33.562Z,39.17
2022-11-02T05:42:01.036Z,33.70
2022-11-02T05:44:28.397Z,33.70
2022-11-02T05:46:55.966Z,33.75
2022-11-02T05:49:23.420Z,33.22
2022-11-02T05:51:50.930Z,33.22
2022-11-02T05:54:18.971Z,33.85
2022-11-02T05:56:46.721Z,31.00
2022-11-02T05:59:14.163Z,30.60
2022-11-02T06:01:41.717Z,27.33
2022-11-02T06:04:09.274Z,24.58
2022-11-02T06:06:36.799Z,27.27
2022-11-02T06:09:07.083Z,25.77
2022-11-02T06:11:35.057Z,27.77
2022-11-02T06:14:03.870Z,17.42
2022-11-02T06:16:31.791Z,21.17
2022-11-02T06:18:59.257Z,21.75
2022-11-02T06:21:26.714Z,18.42
2022-11-02T06:23:54.145Z,16.75
2022-11-02T06:26:21.564Z,17.77
2022-11-02T06:28:48.939Z,17.17
2022-11-02T06:31:17.533Z,19.88
2022-11-02T06:33:45.765Z,16.08
2022-11-02T06:36:13.210Z,19.05
2022-11-02T06:38:42.200Z,19.35
2022-11-02T06:41:10.476Z,20.77
2022-11-02T06:43:38.644Z,17.08
2022-11-02T06:46:06.545Z,18.55
2022-11-02T06:48:35.522Z,19.75
2022-11-02T06:51:05.038Z,17.10
2022-11-02T06:53:33.324Z,17.00
2022-11-02T06:56:00.747Z,20.77
2022-11-02T06:58:28.537Z,16.85
2022-11-02T07:01:01.181Z,20.50
2022-11-02T07:03:29.203Z,16.92
2022-11-02T07:05:56.664Z,17.90
2022-11-02T07:08:24.333Z,16.67
2022-11-02T07:10:52.005Z,15.65
2022-11-02T07:13:19.848Z,17.45
2022-11-02T07:15:47.522Z,19.85
2022-11-02T07:18:14.859Z,16.40
2022-11-02T07:20:42.324Z,17.60
2022-11-02T07:23:10.316Z,19.08
2022-11-02T07:25:38.032Z,17.23
2022-11-02T07:28:05.629Z,21.48
2022-11-02T07:30:34.756Z,20.60
2022-11-02T07:33:02.632Z,20.85
2022-11-02T07:35:30.799Z,21.05
2022-11-02T07:38:04.233Z,20.23
2022-11-02T07:40:34.149Z,15.77
2022-11-02T07:43:02.222Z,20.90
2022-11-02T07:45:29.885Z,20.27
2022-11-02T07:47:57.313Z,18.73
2022-11-02T07:50:27.256Z,18.10
2022-11-02T07:52:56.974Z,18.02
2022-11-02T07:55:30.587Z,23.38
2022-11-02T07:58:06.234Z,18.67
2022-11-02T08:00:38.005Z,18.67
2022-11-02T08:03:07.327Z,16.63
2022-11-02T08:05:37.331Z,22.38
2022-11-02T08:08:06.728Z,15.77
2022-11-02T08:10:39.012Z,19.48
2022-11-02T08:13:09.447Z,20.13
2022-11-02T08:15:37.532Z,17.25
2022-11-02T08:18:13.868Z,17.35
2022-11-02T08:20:41.481Z,16.73
2022-11-02T08:23:10.637Z,20.67
2022-11-02T08:25:39.484Z,16.80
2022-11-02T08:28:10.905Z,16.80
2022-11-02T08:30:38.491Z,18.13
2022-11-02T08:33:08.226Z,14.23
2022-11-02T08:35:37.710Z,17.65
2022-11-02T08:38:06.451Z,16.77
2022-11-02T08:40:35.169Z,18.02
2022-11-02T08:43:07.878Z,15.40
2022-11-02T08:46:08.401Z,17.70
2022-11-02T08:48:24.415Z,17.10
2022-11-02T08:50:51.833Z,13.50
2022-11-02T08:53:19.439Z,11.85
2022-11-02T08:55:46.898Z,13.85
2022-11-02T08:58:14.311Z,12.52
2022-11-02T09:00:41.837Z,14.93
2022-11-02T09:03:14.332Z,14.55
2022-11-02T09:05:46.785Z,15.30
2022-11-02T09:08:19.425Z,11.48
2022-11-02T09:10:53.406Z,12.65
2022-11-02T09:13:25.657Z,11.13
2022-11-02T09:15:55.816Z,10.27
2022-11-02T09:18:23.786Z,10.75
2022-11-02T09:20:51.585Z,12.32
2022-11-02T09:23:20.733Z,9.90
2022-11-02T09:25:49.355Z,11.32
2022-11-02T09:28:16.875Z,11.27
2022-11-02T09:30:44.462Z,11.77
2022-11-02T09:33:13.584Z,11.05
2022-11-02T09:35:43.984Z,15.18
2022-11-02T09:38:11.744Z,13.85
2022-11-02T09:40:46.155Z,11.48
2022-11-02T09:43:32.131Z,14.40
2022-11-02T09:46:34.408Z,14.43
2022-11-02T09:49:11.154Z,15.02
2022-11-02T09:51:44.829Z,13.73
2022-11-02T09:54:35.412Z,16.15
2022-11-02T09:57:11.718Z,15.93
2022-11-02T09:59:40.642Z,17.60
2022-11-02T10:02:49.313Z,15.45
2022-11-02T10:05:40.791Z,19.48
2022-11-02T10:08:35.091Z,16.40
2022-11-02T10:11:20.389Z,19.23
2022-11-02T10:14:10.420Z,17.92
2022-11-02T10:16:44.668Z,17.98
2022-11-02T10:19:17.173Z,17.50
2022-11-02T10:21:52.697Z,15.65
2022-11-02T10:24:43.857Z,13.55
2022-11-02T10:27:30.021Z,16.23
2022-11-02T10:30:03.303Z,15.57
2022-11-02T10:32:32.827Z,18.38
2022-11-02T10:35:26.136Z,16.98
2022-11-02T10:38:22.299Z,14.45
2022-11-02T10:41:14.861Z,15.05
2022-11-02T10:43:57.563Z,14.15
2022-11-02T10:46:40.475Z,12.60
2022-11-02T10:49:19.557Z,15.23
2022-11-02T10:51:47.076Z,14.90
2022-11-02T10:54:19.555Z,16.00
2022-11-02T10:56:51.437Z,15.90
2022-11-02T10:59:24.949Z,17.33
2022-11-02T11:02:03.337Z,16.90
2022-11-02T11:04:32.585Z,19.27
2022-11-02T11:07:21.194Z,20.00
2022-11-02T11:09:57.139Z,17.95
2022-11-02T11:12:32.398Z,20.27
2022-11-02T11:20:39.701Z,19.95
2022-11-02T11:23:23.699Z,24.27
2022-11-02T11:26:31.455Z,21.63
2022-11-02T11:28:59.699Z,24.65
2022-11-02T11:31:27.301Z,24.52
2022-11-02T11:33:57.459Z,27.52
2022-11-02T11:36:30.847Z,25.27
2022-11-02T11:39:27.183Z,23.33
2022-11-02T11:41:54.719Z,27.52
2022-11-02T11:44:22.614Z,27.73
2022-11-02T11:46:56.903Z,31.92
2022-11-02T11:49:35.965Z,28.92
2022-11-02T11:52:20.076Z,29.85
2022-11-02T11:54:55.723Z,30.33
2022-11-02T11:57:34.665Z,26.55
2022-11-02T12:00:22.767Z,27.00
2022-11-02T12:03:06.629Z,29.67
2022-11-02T12:06:05.419Z,27.70
2022-11-02T12:08:49.001Z,32.35
2022-11-02T12:11:24.992Z,28.50
2022-11-02T12:14:23.181Z,27.38
2022-11-02T12:16:59.342Z,24.38
2022-11-02T12:19:46.974Z,25.25
2022-11-02T12:22:37.327Z,26.48
2022-11-02T12:25:16.979Z,24.40
2022-11-02T12:27:59.528Z,30.05
2022-11-02T12:31:05.313Z,24.15
2022-11-02T12:33:53.724Z,30.63
2022-11-02T12:36:26.910Z,26.88
2022-11-02T12:39:19.636Z,28.30
2022-11-02T12:41:51.243Z,29.75
2022-11-02T12:44:30.353Z,36.40
2022-11-02T12:47:03.754Z,27.77
2022-11-02T12:49:41.672Z,23.10
2022-11-02T12:52:36.983Z,22.75
2022-11-02T12:55:16.916Z,23.85
2022-11-02T12:57:46.322Z,22.17
2022-11-02T13:00:21.915Z,22.48
2022-11-02T13:03:02.325Z,23.52
2022-11-02T13:05:40.397Z,23.17
2022-11-02T13:08:24.375Z,26.50
2022-11-02T13:11:03.923Z,22.20
2022-11-02T13:13:37.107Z,21.98
2022-11-02T13:16:07.921Z,18.45
2022-11-02T13:18:49.818Z,20.88
2022-11-02T13:21:29.854Z,22.88
2022-11-02T13:24:00.422Z,24.60
2022-11-02T13:26:38.009Z,24.20
2022-11-02T13:29:23.140Z,20.73
2022-11-02T13:32:06.589Z,20.00
2022-11-02T13:34:44.342Z,21.75
2022-11-02T13:37:29.384Z,22.33
2022-11-02T13:40:00.530Z,21.85
2022-11-02T13:45:23.421Z,19.75
2022-11-02T13:48:09.363Z,15.90
2022-11-02T13:50:42.883Z,17.05
2022-11-02T13:53:27.736Z,22.60
2022-11-02T13:55:59.791Z,20.33
2022-11-02T13:58:35.938Z,22.33
2022-11-02T14:01:06.997Z,21.52
2022-11-02T14:03:57.390Z,18.55
2022-11-02T14:06:28.137Z,22.95
2022-11-02T14:08:57.689Z,19.33
2022-11-02T14:11:45.399Z,24.02
2022-11-02T14:14:18.402Z,24.85
2022-11-02T14:16:49.969Z,29.02
2022-11-02T14:19:20.958Z,23.02
2022-11-02T14:24:33.684Z,26.13
2022-11-02T14:27:23.389Z,28.42
2022-11-02T14:29:52.027Z,25.60
2022-11-02T14:32:26.952Z,23.05
2022-11-02T14:35:19.605Z,27.52
2022-11-02T14:38:05.926Z,29.25
2022-11-02T14:41:10.546Z,24.67
2022-11-02T14:43:59.121Z,27.40
2022-11-02T14:46:45.034Z,28.88
2022-11-02T14:49:23.606Z,23.80
2022-11-02T14:52:05.086Z,27.55
2022-11-02T14:54:49.601Z,26.58
2022-11-02T14:57:37.377Z,29.88
2022-11-02T15:00:19.233Z,30.13
2022-11-02T15:02:47.217Z,30.48
2022-11-02T15:05:30.897Z,37.05
2022-11-02T15:08:18.767Z,31.58
2022-11-02T15:10:46.629Z,31.83
2022-11-02T15:13:20.305Z,34.05
2022-11-02T15:15:50.522Z,54.33
2022-11-02T15:18:25.580Z,38.73
2022-11-02T15:21:11.309Z,60.88
2022-11-02T15:24:16.624Z,56.42
2022-11-02T15:27:01.102Z,69.03
2022-11-02T15:29:43.486Z,144.23
2022-11-02T15:32:22.609Z,55.65
2022-11-02T15:34:53.193Z,156.52
2022-11-02T15:37:30.457Z,65.57
2022-11-02T15:40:01.299Z,211.77
2022-11-02T15:42:37.971Z,136.15
2022-11-02T15:45:46.770Z,106.75
2022-11-02T15:48:22.646Z,88.18
2022-11-02T15:51:11.874Z,88.85
2022-11-02T15:53:42.979Z,38.63
2022-11-02T15:59:14.369Z,89.65
2022-11-02T16:01:42.942Z,49.97
2022-11-02T16:04:21.530Z,44.28
2022-11-02T16:06:49.747Z,45.70
2022-11-02T16:09:36.312Z,77.70
2022-11-02T16:12:21.657Z,31.63
2022-11-02T16:14:58.943Z,43.22
2022-11-02T16:17:30.799Z,62.53
2022-11-02T16:20:37.388Z,55.00
2022-11-02T16:23:06.640Z,60.60
2022-11-02T16:25:41.702Z,54.72
2022-11-02T16:28:29.594Z,54.28
2022-11-02T16:31:19.383Z,56.35
2022-11-02T16:33:55.625Z,71.38
2022-11-02T16:36:36.798Z,137.20
2022-11-02T16:41:41.458Z,73.55
2022-11-02T16:44:17.400Z,47.28
2022-11-02T16:47:22.374Z,38.97
2022-11-02T16:49:49.670Z,45.67
2022-11-02T16:52:17.078Z,37.25
2022-11-02T16:54:45.390Z,35.00
2022-11-02T16:57:15.660Z,34.65
2022-11-02T16:59:56.249Z,42.90
2022-11-02T17:02:41.348Z,52.95
2022-11-02T17:05:34.860Z,43.30
2022-11-02T17:08:09.292Z,48.67
2022-11-02T17:10:38.848Z,41.53
2022-11-02T17:13:18.673Z,36.40
2022-11-02T17:15:50.208Z,40.63
2022-11-02T17:18:23.443Z,41.80
2022-11-02T17:21:12.184Z,35.75
2022-11-02T17:23:44.295Z,40.83
2022-11-02T17:26:24.887Z,43.20
2022-11-02T17:29:01.338Z,44.03
2022-11-02T17:31:30.592Z,42.15
2022-11-02T17:34:07.943Z,47.95
2022-11-02T17:36:46.158Z,37.80
2022-11-02T17:39:16.040Z,40.75
2022-11-02T17:42:16.593Z,41.63
2022-11-02T17:44:45.715Z,46.30
2022-11-02T17:47:15.470Z,40.47
2022-11-02T17:49:43.007Z,36.00
2022-11-02T17:52:13.922Z,44.72
2022-11-02T17:54:41.314Z,39.35
2022-11-02T17:57:15.513Z,42.60
2022-11-02T17:59:42.983Z,35.08
2022-11-02T18:02:15.225Z,40.20
2022-11-02T18:07:12.409Z,45.10
2022-11-02T18:09:40.223Z,43.70
2022-11-02T18:12:12.419Z,39.88
2022-11-02T18:14:40.493Z,37.70
2022-11-02T18:17:08.699Z,37.35
2022-11-02T18:19:36.071Z,35.85
2022-11-02T18:22:03.429Z,35.95
2022-11-02T18:24:30.802Z,37.38
2022-11-02T18:26:58.263Z,39.00
2022-11-02T18:29:25.684Z,31.65
2022-11-02T18:31:53.094Z,33.90
2022-11-02T18:34:21.805Z,36.28
2022-11-02T18:36:49.177Z,31.42
2022-11-02T18:39:16.573Z,25.75
2022-11-02T18:41:43.971Z,30.05
2022-11-02T18:44:15.254Z,28.33
2022-11-02T18:46:43.287Z,25.90
2022-11-02T18:49:10.652Z,24.70
2022-11-02T18:51:38.092Z,24.27
2022-11-02T18:54:06.700Z,24.77
2022-11-02T18:56:34.188Z,21.50
2022-11-02T18:59:02.013Z,24.23
2022-11-02T19:01:30.064Z,18.77
2022-11-02T19:03:59.283Z,19.77
2022-11-02T19:06:47.222Z,22.33
2022-11-02T19:09:18.896Z,26.42
2022-11-02T19:11:47.972Z,21.52
2022-11-02T19:14:16.368Z,27.75
2022-11-02T19:16:43.811Z,27.90
2022-11-02T19:19:11.244Z,24.23
2022-11-02T19:21:38.944Z,26.95
2022-11-02T19:24:07.080Z,25.52
2022-11-02T19:26:35.491Z,31.23
2022-11-02T19:29:06.255Z,26.60
2022-11-02T19:31:35.691Z,27.58
2022-11-02T19:34:04.224Z,25.27
2022-11-02T19:36:32.482Z,27.73
2022-11-02T19:39:03.151Z,25.67
2022-11-02T19:41:31.615Z,30.25
2022-11-02T19:43:59.217Z,24.80
2022-11-02T19:46:27.701Z,28.55
2022-11-02T19:48:57.062Z,31.90
2022-11-02T19:51:27.497Z,29.20
2022-11-02T19:53:58.376Z,27.98
2022-11-02T19:56:27.727Z,27.73
2022-11-02T19:58:55.566Z,27.92
2022-11-02T20:01:28.051Z,28.60
2022-11-02T20:03:56.554Z,28.13
2022-11-02T20:06:25.553Z,31.83
2022-11-02T20:08:54.911Z,27.23
2022-11-02T20:11:23.604Z,31.05
2022-11-02T20:13:51.292Z,30.73
2022-11-02T20:16:20.093Z,30.52
2022-11-02T20:18:49.315Z,28.58
2022-11-02T20:21:19.449Z,36.53
2022-11-02T20:23:47.230Z,30.92
2022-11-02T20:26:33.258Z,35.67
2022-11-02T20:29:02.458Z,31.00
2022-11-02T20:31:32.358Z,30.85
2022-11-02T20:34:00.666Z,32.92
2022-11-02T20:36:28.575Z,34.05
2022-11-02T20:38:56.525Z,32.85
2022-11-02T20:41:24.948Z,36.47
2022-11-02T20:43:54.841Z,36.42
2022-11-02T20:46:47.456Z,36.15
2022-11-02T20:49:48.796Z,42.85
2022-11-02T20:52:03.271Z,39.83
2022-11-02T20:54:30.638Z,49.13
2022-11-02T20:56:58.126Z,42.55
2022-11-02T20:59:25.827Z,41.38
2022-11-02T21:01:53.415Z,53.92
2022-11-02T21:04:21.859Z,57.35
2022-11-02T21:06:50.115Z,44.58
2022-11-02T21:09:18.166Z,47.38
2022-11-02T21:12:04.017Z,45.45
2022-11-02T21:14:31.406Z,44.40
2022-11-02T21:16:58.964Z,44.13
2022-11-02T21:19:26.380Z,39.75
2022-11-02T21:21:59.064Z,39.45
2022-11-02T21:24:27.870Z,40.85
2022-11-02T21:26:55.301Z,43.92
2022-11-02T21:29:22.825Z,43.17
2022-11-02T21:31:50.406Z,42.00
2022-11-02T21:34:17.853Z,40.42
2022-11-02T21:36:45.328Z,46.28
2022-11-02T21:39:12.777Z,43.50
2022-11-02T21:41:40.344Z,39.75
2022-11-02T21:44:09.024Z,41.45
2022-11-02T21:46:36.419Z,44.83
2022-11-02T21:49:04.272Z,43.90
2022-11-02T21:51:31.750Z,44.13
2022-11-02T21:53:59.171Z,49.40
2022-11-02T21:56:28.066Z,47.63
2022-11-02T21:58:56.238Z,48.40
2022-11-02T22:01:45.334Z,39.80
2022-11-02T22:04:31.805Z,41.78
2022-11-02T22:07:00.771Z,44.47
2022-11-02T22:09:29.326Z,43.47
2022-11-02T22:12:26.424Z,46.45
2022-11-02T22:14:53.752Z,45.00
2022-11-02T22:17:49.154Z,42.92
2022-11-02T22:20:08.947Z,46.65
2022-11-02T22:22:36.360Z,51.72
2022-11-02T22:25:03.980Z,48.50
2022-11-02T22:27:31.312Z,48.58
2022-11-02T22:29:58.698Z,44.40
2022-11-02T22:32:26.055Z,46.15
2022-11-02T22:34:53.443Z,45.50
2022-11-02T22:37:39.365Z,49.00
2022-11-02T22:40:07.094Z,49.13
2022-11-02T22:42:38.302Z,48.40
2022-11-02T22:45:09.217Z,44.92
2022-11-02T22:47:36.962Z,47.25
2022-11-02T22:50:04.857Z,46.63
2022-11-02T22:52:32.265Z,45.00
2022-11-02T22:54:59.657Z,45.20
2022-11-02T22:57:27.048Z,54.83
2022-11-02T22:59:54.395Z,50.05
2022-11-02T23:02:21.796Z,48.33
2022-11-02T23:04:50.583Z,48.33
2022-11-02T23:07:17.909Z,48.00
2022-11-02T23:09:45.327Z,46.92
2022-11-02T23:12:12.723Z,49.20
2022-11-02T23:14:40.148Z,47.83
2022-11-02T23:17:07.535Z,53.00
2022-11-02T23:19:37.432Z,47.28
2022-11-02T23:22:26.295Z,43.63
2022-11-02T23:25:11.446Z,50.42
2022-11-02T23:28:15.303Z,54.70
2022-11-02T23:31:02.011Z,45.25
2022-11-02T23:33:31.719Z,45.55
2022-11-02T23:36:13.277Z,47.55
2022-11-02T23:39:03.907Z,43.10
2022-11-02T23:41:33.605Z,43.88
2022-11-02T23:44:14.671Z,43.58
2022-11-02T23:49:11.532Z,46.05
2022-11-02T23:51:57.843Z,47.90
2022-11-02T23:54:43.900Z,46.05
2022-11-02T23:57:11.430Z,45.83
2022-11-02T23:59:38.865Z,47.00
